sensor_id;sensor_type;location;lat;lon;timestamp;P1;durP1;ratioP1;P2;durP2;ratioP2
69410;SDS011;56604;48.652;9.194;2022-12-07T00:02:21;8.03;;;5.63;;
69410;SDS011;56604;48.652;9.194;2022-12-07T00:04:48;8.97;;;6.63;;
69410;SDS011;56604;48.652;9.194;2022-12-07T00:07:14;10.43;;;5.30;;
69410;SDS011;56604;48.652;9.194;2022-12-07T00:09:39;5.97;;;5.30;;
69410;SDS011;56604;48.652;9.194;2022-12-07T00:12:06;19.93;;;5.73;;
69410;SDS011;56604;48.652;9.194;2022-12-07T00:14:33;7.90;;;5.93;;
69410;SDS011;56604;48.652;9.194;2022-12-07T00:16:58;8.23;;;5.63;;
69410;SDS011;56604;48.652;9.194;2022-12-07T00:19:24;6.70;;;5.67;;
69410;SDS011;56604;48.652;9.194;2022-12-07T00:21:49;8.97;;;5.43;;
69410;SDS011;56604;48.652;9.194;2022-12-07T00:24:14;7.00;;;6.07;;
69410;SDS011;56604;48.652;9.194;2022-12-07T00:26:40;10.47;;;6.10;;
69410;SDS011;56604;48.652;9.194;2022-12-07T00:29:09;6.60;;;5.90;;
69410;SDS011;56604;48.652;9.194;2022-12-07T00:31:40;6.67;;;5.50;;
69410;SDS011;56604;48.652;9.194;2022-12-07T00:34:06;9.60;;;6.23;;
69410;SDS011;56604;48.652;9.194;2022-12-07T00:36:32;7.50;;;6.30;;
69410;SDS011;56604;48.652;9.194;2022-12-07T00:38:58;7.20;;;6.00;;
69410;SDS011;56604;48.652;9.194;2022-12-07T00:41:25;7.73;;;6.73;;
69410;SDS011;56604;48.652;9.194;2022-12-07T00:43:51;7.97;;;6.53;;
69410;SDS011;56604;48.652;9.194;2022-12-07T00:46:17;6.90;;;6.20;;
69410;SDS011;56604;48.652;9.194;2022-12-07T00:48:44;6.43;;;5.77;;
69410;SDS011;56604;48.652;9.194;2022-12-07T00:51:10;7.93;;;6.30;;
69410;SDS011;56604;48.652;9.194;2022-12-07T00:53:37;6.13;;;5.53;;
69410;SDS011;56604;48.652;9.194;2022-12-07T00:56:06;6.70;;;5.70;;
69410;SDS011;56604;48.652;9.194;2022-12-07T00:58:33;6.80;;;6.10;;
69410;SDS011;56604;48.652;9.194;2022-12-07T01:01:01;11.30;;;6.67;;
69410;SDS011;56604;48.652;9.194;2022-12-07T01:03:28;11.00;;;6.40;;
69410;SDS011;56604;48.652;9.194;2022-12-07T01:05:54;8.43;;;6.63;;
69410;SDS011;56604;48.652;9.194;2022-12-07T01:08:20;7.03;;;6.30;;
69410;SDS011;56604;48.652;9.194;2022-12-07T01:10:47;7.67;;;6.37;;
69410;SDS011;56604;48.652;9.194;2022-12-07T01:13:13;8.53;;;6.37;;
69410;SDS011;56604;48.652;9.194;2022-12-07T01:15:40;7.27;;;5.77;;
69410;SDS011;56604;48.652;9.194;2022-12-07T01:18:06;16.63;;;6.33;;
69410;SDS011;56604;48.652;9.194;2022-12-07T01:20:31;9.03;;;6.80;;
69410;SDS011;56604;48.652;9.194;2022-12-07T01:22:57;7.83;;;6.50;;
69410;SDS011;56604;48.652;9.194;2022-12-07T01:25:22;7.83;;;6.40;;
69410;SDS011;56604;48.652;9.194;2022-12-07T01:27:47;12.27;;;7.47;;
69410;SDS011;56604;48.652;9.194;2022-12-07T01:30:13;10.00;;;7.13;;
69410;SDS011;56604;48.652;9.194;2022-12-07T01:32:38;10.57;;;7.10;;
69410;SDS011;56604;48.652;9.194;2022-12-07T01:35:04;10.33;;;7.17;;
69410;SDS011;56604;48.652;9.194;2022-12-07T01:37:33;10.87;;;7.70;;
69410;SDS011;56604;48.652;9.194;2022-12-07T01:40:03;13.30;;;8.37;;
69410;SDS011;56604;48.652;9.194;2022-12-07T01:42:29;11.73;;;7.83;;
69410;SDS011;56604;48.652;9.194;2022-12-07T01:47:57;13.50;;;8.10;;
69410;SDS011;56604;48.652;9.194;2022-12-07T01:50:24;10.20;;;7.30;;
69410;SDS011;56604;48.652;9.194;2022-12-07T01:52:52;12.50;;;9.30;;
69410;SDS011;56604;48.652;9.194;2022-12-07T01:55:20;12.03;;;7.50;;
69410;SDS011;56604;48.652;9.194;2022-12-07T01:57:50;9.97;;;8.10;;
69410;SDS011;56604;48.652;9.194;2022-12-07T02:00:18;12.20;;;8.13;;
69410;SDS011;56604;48.652;9.194;2022-12-07T02:02:54;14.07;;;8.87;;
69410;SDS011;56604;48.652;9.194;2022-12-07T02:05:25;10.27;;;7.83;;
69410;SDS011;56604;48.652;9.194;2022-12-07T02:07:52;11.20;;;8.73;;
69410;SDS011;56604;48.652;9.194;2022-12-07T02:10:24;9.90;;;7.97;;
69410;SDS011;56604;48.652;9.194;2022-12-07T02:24:13;13.47;;;8.80;;
69410;SDS011;56604;48.652;9.194;2022-12-07T02:32:12;15.57;;;9.50;;
69410;SDS011;56604;48.652;9.194;2022-12-07T02:37:39;12.97;;;9.97;;
69410;SDS011;56604;48.652;9.194;2022-12-07T02:40:29;14.47;;;10.40;;
69410;SDS011;56604;48.652;9.194;2022-12-07T02:43:12;14.63;;;8.80;;
69410;SDS011;56604;48.652;9.194;2022-12-07T02:45:42;10.60;;;8.70;;
69410;SDS011;56604;48.652;9.194;2022-12-07T02:48:11;13.23;;;9.50;;
69410;SDS011;56604;48.652;9.194;2022-12-07T02:50:44;12.83;;;8.30;;
69410;SDS011;56604;48.652;9.194;2022-12-07T03:07:49;10.40;;;7.67;;
69410;SDS011;56604;48.652;9.194;2022-12-07T03:12:57;10.00;;;7.40;;
69410;SDS011;56604;48.652;9.194;2022-12-07T03:18:13;9.90;;;7.53;;
69410;SDS011;56604;48.652;9.194;2022-12-07T03:20:42;10.83;;;7.90;;
69410;SDS011;56604;48.652;9.194;2022-12-07T03:23:10;10.30;;;8.13;;
69410;SDS011;56604;48.652;9.194;2022-12-07T03:25:41;11.10;;;8.07;;
69410;SDS011;56604;48.652;9.194;2022-12-07T03:28:10;12.10;;;8.00;;
69410;SDS011;56604;48.652;9.194;2022-12-07T03:33:32;8.67;;;7.63;;
69410;SDS011;56604;48.652;9.194;2022-12-07T03:38:50;11.83;;;7.77;;
69410;SDS011;56604;48.652;9.194;2022-12-07T03:41:26;13.23;;;9.00;;
69410;SDS011;56604;48.652;9.194;2022-12-07T03:43:55;12.63;;;8.17;;
69410;SDS011;56604;48.652;9.194;2022-12-07T03:46:27;10.10;;;7.80;;
69410;SDS011;56604;48.652;9.194;2022-12-07T03:48:56;12.27;;;8.20;;
69410;SDS011;56604;48.652;9.194;2022-12-07T03:51:40;14.73;;;9.17;;
69410;SDS011;56604;48.652;9.194;2022-12-07T03:56:53;10.57;;;8.00;;
69410;SDS011;56604;48.652;9.194;2022-12-07T03:59:21;13.47;;;8.73;;
69410;SDS011;56604;48.652;9.194;2022-12-07T04:01:54;14.20;;;8.50;;
69410;SDS011;56604;48.652;9.194;2022-12-07T04:04:22;12.37;;;8.90;;
69410;SDS011;56604;48.652;9.194;2022-12-07T04:06:49;10.97;;;8.40;;
69410;SDS011;56604;48.652;9.194;2022-12-07T04:09:15;12.43;;;8.23;;
69410;SDS011;56604;48.652;9.194;2022-12-07T04:11:40;16.03;;;9.13;;
69410;SDS011;56604;48.652;9.194;2022-12-07T04:14:05;18.37;;;9.40;;
69410;SDS011;56604;48.652;9.194;2022-12-07T04:16:44;14.87;;;9.70;;
69410;SDS011;56604;48.652;9.194;2022-12-07T04:19:10;10.67;;;8.40;;
69410;SDS011;56604;48.652;9.194;2022-12-07T04:21:35;10.40;;;8.37;;
69410;SDS011;56604;48.652;9.194;2022-12-07T04:24:00;11.43;;;8.30;;
69410;SDS011;56604;48.652;9.194;2022-12-07T04:26:26;12.07;;;8.60;;
69410;SDS011;56604;48.652;9.194;2022-12-07T04:28:51;12.87;;;8.93;;
69410;SDS011;56604;48.652;9.194;2022-12-07T04:31:16;16.23;;;10.20;;
69410;SDS011;56604;48.652;9.194;2022-12-07T04:33:41;14.67;;;9.37;;
69410;SDS011;56604;48.652;9.194;2022-12-07T04:36:07;13.70;;;9.03;;
69410;SDS011;56604;48.652;9.194;2022-12-07T04:38:32;13.20;;;9.50;;
69410;SDS011;56604;48.652;9.194;2022-12-07T04:40:58;17.87;;;9.67;;
69410;SDS011;56604;48.652;9.194;2022-12-07T04:43:23;14.20;;;8.93;;
69410;SDS011;56604;48.652;9.194;2022-12-07T04:45:49;14.43;;;9.97;;
69410;SDS011;56604;48.652;9.194;2022-12-07T04:48:15;14.17;;;9.77;;
69410;SDS011;56604;48.652;9.194;2022-12-07T04:50:41;13.03;;;8.83;;
69410;SDS011;56604;48.652;9.194;2022-12-07T04:53:06;13.27;;;9.13;;
69410;SDS011;56604;48.652;9.194;2022-12-07T04:55:31;14.90;;;9.27;;
69410;SDS011;56604;48.652;9.194;2022-12-07T04:57:56;16.13;;;9.50;;
69410;SDS011;56604;48.652;9.194;2022-12-07T05:00:22;14.90;;;10.20;;
69410;SDS011;56604;48.652;9.194;2022-12-07T05:02:47;14.53;;;9.73;;
69410;SDS011;56604;48.652;9.194;2022-12-07T05:05:12;14.07;;;9.70;;
69410;SDS011;56604;48.652;9.194;2022-12-07T05:07:38;15.83;;;9.73;;
69410;SDS011;56604;48.652;9.194;2022-12-07T05:10:03;16.27;;;10.20;;
69410;SDS011;56604;48.652;9.194;2022-12-07T05:12:29;20.30;;;11.50;;
69410;SDS011;56604;48.652;9.194;2022-12-07T05:14:54;15.20;;;11.40;;
69410;SDS011;56604;48.652;9.194;2022-12-07T05:17:20;16.10;;;9.90;;
69410;SDS011;56604;48.652;9.194;2022-12-07T05:19:45;18.83;;;11.57;;
69410;SDS011;56604;48.652;9.194;2022-12-07T05:22:10;15.60;;;10.77;;
69410;SDS011;56604;48.652;9.194;2022-12-07T05:24:36;16.77;;;9.80;;
69410;SDS011;56604;48.652;9.194;2022-12-07T05:27:01;16.33;;;9.37;;
69410;SDS011;56604;48.652;9.194;2022-12-07T05:29:26;13.37;;;9.23;;
69410;SDS011;56604;48.652;9.194;2022-12-07T05:31:52;15.30;;;10.17;;
69410;SDS011;56604;48.652;9.194;2022-12-07T05:34:17;14.10;;;10.30;;
69410;SDS011;56604;48.652;9.194;2022-12-07T05:36:42;20.90;;;10.17;;
69410;SDS011;56604;48.652;9.194;2022-12-07T05:39:09;13.83;;;9.03;;
69410;SDS011;56604;48.652;9.194;2022-12-07T05:41:35;13.60;;;9.20;;
69410;SDS011;56604;48.652;9.194;2022-12-07T05:44:19;13.10;;;8.70;;
69410;SDS011;56604;48.652;9.194;2022-12-07T05:46:44;13.00;;;8.03;;
69410;SDS011;56604;48.652;9.194;2022-12-07T05:49:10;28.93;;;9.50;;
69410;SDS011;56604;48.652;9.194;2022-12-07T05:51:35;10.53;;;7.83;;
69410;SDS011;56604;48.652;9.194;2022-12-07T05:54:00;14.13;;;8.63;;
69410;SDS011;56604;48.652;9.194;2022-12-07T05:56:26;11.47;;;7.67;;
69410;SDS011;56604;48.652;9.194;2022-12-07T05:58:52;10.10;;;6.77;;
69410;SDS011;56604;48.652;9.194;2022-12-07T06:01:36;8.70;;;6.40;;
69410;SDS011;56604;48.652;9.194;2022-12-07T06:04:01;7.07;;;6.03;;
69410;SDS011;56604;48.652;9.194;2022-12-07T06:06:26;9.90;;;5.40;;
69410;SDS011;56604;48.652;9.194;2022-12-07T06:08:52;12.17;;;6.20;;
69410;SDS011;56604;48.652;9.194;2022-12-07T06:11:17;13.63;;;7.63;;
69410;SDS011;56604;48.652;9.194;2022-12-07T06:14:01;16.90;;;8.30;;
69410;SDS011;56604;48.652;9.194;2022-12-07T06:16:26;20.43;;;10.40;;
69410;SDS011;56604;48.652;9.194;2022-12-07T06:18:52;15.70;;;10.20;;
69410;SDS011;56604;48.652;9.194;2022-12-07T06:21:17;10.70;;;7.80;;
69410;SDS011;56604;48.652;9.194;2022-12-07T06:23:42;11.33;;;8.23;;
69410;SDS011;56604;48.652;9.194;2022-12-07T06:26:07;15.30;;;9.83;;
69410;SDS011;56604;48.652;9.194;2022-12-07T06:28:33;11.83;;;8.00;;
69410;SDS011;56604;48.652;9.194;2022-12-07T06:31:01;14.57;;;10.10;;
69410;SDS011;56604;48.652;9.194;2022-12-07T06:33:27;37.00;;;8.97;;
69410;SDS011;56604;48.652;9.194;2022-12-07T06:35:53;14.93;;;10.27;;
69410;SDS011;56604;48.652;9.194;2022-12-07T06:38:19;12.30;;;9.27;;
69410;SDS011;56604;48.652;9.194;2022-12-07T06:40:44;13.60;;;9.80;;
69410;SDS011;56604;48.652;9.194;2022-12-07T06:43:10;12.33;;;8.47;;
69410;SDS011;56604;48.652;9.194;2022-12-07T06:45:35;14.50;;;8.87;;
69410;SDS011;56604;48.652;9.194;2022-12-07T06:48:00;12.13;;;8.77;;
69410;SDS011;56604;48.652;9.194;2022-12-07T06:50:26;12.00;;;8.60;;
69410;SDS011;56604;48.652;9.194;2022-12-07T06:52:51;10.70;;;8.40;;
69410;SDS011;56604;48.652;9.194;2022-12-07T06:55:16;12.77;;;8.00;;
69410;SDS011;56604;48.652;9.194;2022-12-07T06:57:42;9.27;;;7.63;;
69410;SDS011;56604;48.652;9.194;2022-12-07T07:00:07;13.23;;;8.80;;
69410;SDS011;56604;48.652;9.194;2022-12-07T07:02:33;11.67;;;7.97;;
69410;SDS011;56604;48.652;9.194;2022-12-07T07:04:59;11.87;;;8.60;;
69410;SDS011;56604;48.652;9.194;2022-12-07T07:07:24;10.70;;;8.00;;
69410;SDS011;56604;48.652;9.194;2022-12-07T07:09:49;10.20;;;7.40;;
69410;SDS011;56604;48.652;9.194;2022-12-07T07:12:15;10.90;;;7.03;;
69410;SDS011;56604;48.652;9.194;2022-12-07T07:14:40;11.50;;;8.10;;
69410;SDS011;56604;48.652;9.194;2022-12-07T07:17:05;10.83;;;7.60;;
69410;SDS011;56604;48.652;9.194;2022-12-07T07:19:31;10.30;;;7.20;;
69410;SDS011;56604;48.652;9.194;2022-12-07T07:21:56;10.50;;;7.43;;
69410;SDS011;56604;48.652;9.194;2022-12-07T07:24:21;8.40;;;7.10;;
69410;SDS011;56604;48.652;9.194;2022-12-07T07:26:47;9.40;;;7.33;;
69410;SDS011;56604;48.652;9.194;2022-12-07T07:29:12;8.70;;;6.70;;
69410;SDS011;56604;48.652;9.194;2022-12-07T07:31:37;10.90;;;8.60;;
69410;SDS011;56604;48.652;9.194;2022-12-07T07:34:03;19.83;;;10.37;;
69410;SDS011;56604;48.652;9.194;2022-12-07T07:36:29;12.57;;;8.57;;
69410;SDS011;56604;48.652;9.194;2022-12-07T07:38:54;9.67;;;7.80;;
69410;SDS011;56604;48.652;9.194;2022-12-07T07:41:19;10.33;;;8.30;;
69410;SDS011;56604;48.652;9.194;2022-12-07T07:43:45;12.30;;;7.77;;
69410;SDS011;56604;48.652;9.194;2022-12-07T07:46:10;11.17;;;8.10;;
69410;SDS011;56604;48.652;9.194;2022-12-07T07:48:35;13.40;;;8.47;;
69410;SDS011;56604;48.652;9.194;2022-12-07T07:51:04;11.93;;;8.30;;
69410;SDS011;56604;48.652;9.194;2022-12-07T07:53:30;12.60;;;8.20;;
69410;SDS011;56604;48.652;9.194;2022-12-07T07:55:56;11.23;;;8.53;;
69410;SDS011;56604;48.652;9.194;2022-12-07T07:58:21;11.83;;;8.17;;
69410;SDS011;56604;48.652;9.194;2022-12-07T08:00:47;12.70;;;7.63;;
69410;SDS011;56604;48.652;9.194;2022-12-07T08:03:12;8.93;;;7.77;;
69410;SDS011;56604;48.652;9.194;2022-12-07T08:05:38;7.87;;;7.07;;
69410;SDS011;56604;48.652;9.194;2022-12-07T08:08:03;9.33;;;7.60;;
69410;SDS011;56604;48.652;9.194;2022-12-07T08:10:29;10.57;;;7.73;;
69410;SDS011;56604;48.652;9.194;2022-12-07T08:12:56;11.63;;;7.40;;
69410;SDS011;56604;48.652;9.194;2022-12-07T08:15:41;9.60;;;7.07;;
69410;SDS011;56604;48.652;9.194;2022-12-07T08:18:08;8.60;;;6.63;;
69410;SDS011;56604;48.652;9.194;2022-12-07T08:20:34;7.27;;;5.87;;
69410;SDS011;56604;48.652;9.194;2022-12-07T08:23:02;8.53;;;6.90;;
69410;SDS011;56604;48.652;9.194;2022-12-07T08:25:27;11.27;;;6.43;;
69410;SDS011;56604;48.652;9.194;2022-12-07T08:27:53;9.37;;;6.27;;
69410;SDS011;56604;48.652;9.194;2022-12-07T08:30:19;8.00;;;6.30;;
69410;SDS011;56604;48.652;9.194;2022-12-07T08:32:44;9.23;;;6.23;;
69410;SDS011;56604;48.652;9.194;2022-12-07T08:35:10;13.57;;;6.43;;
69410;SDS011;56604;48.652;9.194;2022-12-07T08:37:36;9.13;;;6.93;;
69410;SDS011;56604;48.652;9.194;2022-12-07T08:40:03;7.50;;;6.40;;
69410;SDS011;56604;48.652;9.194;2022-12-07T08:42:29;8.40;;;7.30;;
69410;SDS011;56604;48.652;9.194;2022-12-07T08:45:02;10.00;;;6.90;;
69410;SDS011;56604;48.652;9.194;2022-12-07T08:47:30;9.80;;;7.37;;
69410;SDS011;56604;48.652;9.194;2022-12-07T08:49:56;8.70;;;6.70;;
69410;SDS011;56604;48.652;9.194;2022-12-07T08:52:21;9.07;;;6.70;;
69410;SDS011;56604;48.652;9.194;2022-12-07T08:54:47;9.00;;;6.87;;
69410;SDS011;56604;48.652;9.194;2022-12-07T08:57:13;8.73;;;7.13;;
69410;SDS011;56604;48.652;9.194;2022-12-07T08:59:38;8.63;;;6.80;;
69410;SDS011;56604;48.652;9.194;2022-12-07T09:02:04;7.77;;;6.17;;
69410;SDS011;56604;48.652;9.194;2022-12-07T09:04:30;6.20;;;5.60;;
69410;SDS011;56604;48.652;9.194;2022-12-07T09:06:56;6.57;;;5.83;;
69410;SDS011;56604;48.652;9.194;2022-12-07T09:09:22;7.60;;;5.80;;
69410;SDS011;56604;48.652;9.194;2022-12-07T09:11:47;7.57;;;6.30;;
69410;SDS011;56604;48.652;9.194;2022-12-07T09:14:13;5.93;;;5.30;;
69410;SDS011;56604;48.652;9.194;2022-12-07T09:16:38;10.27;;;5.83;;
69410;SDS011;56604;48.652;9.194;2022-12-07T09:19:04;8.33;;;6.50;;
69410;SDS011;56604;48.652;9.194;2022-12-07T09:21:29;6.87;;;5.50;;
69410;SDS011;56604;48.652;9.194;2022-12-07T09:23:55;6.47;;;5.80;;
69410;SDS011;56604;48.652;9.194;2022-12-07T09:26:20;5.70;;;5.20;;
69410;SDS011;56604;48.652;9.194;2022-12-07T09:28:45;6.37;;;5.40;;
69410;SDS011;56604;48.652;9.194;2022-12-07T09:31:11;8.47;;;5.40;;
69410;SDS011;56604;48.652;9.194;2022-12-07T09:33:36;9.90;;;4.97;;
69410;SDS011;56604;48.652;9.194;2022-12-07T09:36:02;15.73;;;5.77;;
69410;SDS011;56604;48.652;9.194;2022-12-07T09:38:28;4.70;;;4.30;;
69410;SDS011;56604;48.652;9.194;2022-12-07T09:40:55;5.10;;;4.60;;
69410;SDS011;56604;48.652;9.194;2022-12-07T09:43:22;5.23;;;4.73;;
69410;SDS011;56604;48.652;9.194;2022-12-07T09:45:52;5.10;;;4.70;;
69410;SDS011;56604;48.652;9.194;2022-12-07T09:48:25;5.60;;;4.70;;
69410;SDS011;56604;48.652;9.194;2022-12-07T09:50:55;4.47;;;4.13;;
69410;SDS011;56604;48.652;9.194;2022-12-07T09:53:36;4.87;;;4.37;;
69410;SDS011;56604;48.652;9.194;2022-12-07T09:56:03;5.27;;;4.87;;
69410;SDS011;56604;48.652;9.194;2022-12-07T09:58:29;5.10;;;4.67;;
69410;SDS011;56604;48.652;9.194;2022-12-07T10:01:05;4.47;;;4.17;;
69410;SDS011;56604;48.652;9.194;2022-12-07T10:03:37;5.80;;;4.67;;
69410;SDS011;56604;48.652;9.194;2022-12-07T10:06:04;4.33;;;3.93;;
69410;SDS011;56604;48.652;9.194;2022-12-07T10:08:30;5.23;;;4.73;;
69410;SDS011;56604;48.652;9.194;2022-12-07T10:10:56;4.97;;;4.50;;
69410;SDS011;56604;48.652;9.194;2022-12-07T10:13:33;5.00;;;4.60;;
69410;SDS011;56604;48.652;9.194;2022-12-07T10:16:00;4.70;;;4.20;;
69410;SDS011;56604;48.652;9.194;2022-12-07T10:23:34;6.47;;;5.00;;
69410;SDS011;56604;48.652;9.194;2022-12-07T10:26:15;6.27;;;5.67;;
69410;SDS011;56604;48.652;9.194;2022-12-07T10:28:46;5.73;;;4.50;;
69410;SDS011;56604;48.652;9.194;2022-12-07T10:31:16;5.23;;;4.83;;
69410;SDS011;56604;48.652;9.194;2022-12-07T10:33:54;5.20;;;4.70;;
69410;SDS011;56604;48.652;9.194;2022-12-07T10:36:25;5.10;;;4.60;;
69410;SDS011;56604;48.652;9.194;2022-12-07T10:38:59;5.03;;;4.63;;
69410;SDS011;56604;48.652;9.194;2022-12-07T10:41:25;5.63;;;5.03;;
69410;SDS011;56604;48.652;9.194;2022-12-07T10:43:51;6.13;;;4.53;;
69410;SDS011;56604;48.652;9.194;2022-12-07T10:49:14;18.37;;;12.00;;
69410;SDS011;56604;48.652;9.194;2022-12-07T10:54:37;13.30;;;9.10;;
69410;SDS011;56604;48.652;9.194;2022-12-07T10:57:19;5.70;;;4.63;;
69410;SDS011;56604;48.652;9.194;2022-12-07T11:00:02;5.57;;;5.00;;
69410;SDS011;56604;48.652;9.194;2022-12-07T11:03:04;4.80;;;4.40;;
69410;SDS011;56604;48.652;9.194;2022-12-07T11:05:45;8.50;;;5.13;;
69410;SDS011;56604;48.652;9.194;2022-12-07T11:10:58;8.03;;;6.10;;
69410;SDS011;56604;48.652;9.194;2022-12-07T11:13:44;4.70;;;4.03;;
69410;SDS011;56604;48.652;9.194;2022-12-07T11:16:22;4.60;;;4.20;;
69410;SDS011;56604;48.652;9.194;2022-12-07T11:19:20;5.87;;;5.23;;
69410;SDS011;56604;48.652;9.194;2022-12-07T11:21:58;7.93;;;5.17;;
69410;SDS011;56604;48.652;9.194;2022-12-07T11:27:13;5.50;;;4.40;;
69410;SDS011;56604;48.652;9.194;2022-12-07T11:30:08;4.43;;;4.07;;
69410;SDS011;56604;48.652;9.194;2022-12-07T11:32:44;4.57;;;4.17;;
69410;SDS011;56604;48.652;9.194;2022-12-07T11:38:16;4.43;;;4.00;;
69410;SDS011;56604;48.652;9.194;2022-12-07T11:40:45;10.83;;;4.33;;
69410;SDS011;56604;48.652;9.194;2022-12-07T11:43:21;4.90;;;4.30;;
69410;SDS011;56604;48.652;9.194;2022-12-07T11:46:10;5.63;;;4.07;;
69410;SDS011;56604;48.652;9.194;2022-12-07T11:48:58;4.47;;;4.17;;
69410;SDS011;56604;48.652;9.194;2022-12-07T11:51:29;4.10;;;3.80;;
69410;SDS011;56604;48.652;9.194;2022-12-07T11:53:59;4.90;;;4.40;;
69410;SDS011;56604;48.652;9.194;2022-12-07T11:56:30;4.70;;;4.30;;
69410;SDS011;56604;48.652;9.194;2022-12-07T11:59:16;4.40;;;4.00;;
69410;SDS011;56604;48.652;9.194;2022-12-07T12:02:00;5.40;;;4.13;;
69410;SDS011;56604;48.652;9.194;2022-12-07T12:04:49;4.67;;;4.00;;
69410;SDS011;56604;48.652;9.194;2022-12-07T12:07:21;5.57;;;4.30;;
69410;SDS011;56604;48.652;9.194;2022-12-07T12:09:59;4.73;;;4.33;;
69410;SDS011;56604;48.652;9.194;2022-12-07T12:23:44;3.60;;;3.40;;
69410;SDS011;56604;48.652;9.194;2022-12-07T12:26:16;4.07;;;3.77;;
69410;SDS011;56604;48.652;9.194;2022-12-07T12:31:14;12.03;;;7.80;;
69410;SDS011;56604;48.652;9.194;2022-12-07T12:34:03;18.03;;;5.97;;
69410;SDS011;56604;48.652;9.194;2022-12-07T12:36:48;5.97;;;4.90;;
69410;SDS011;56604;48.652;9.194;2022-12-07T12:39:15;4.70;;;4.30;;
69410;SDS011;56604;48.652;9.194;2022-12-07T12:51:53;31.63;;;13.60;;
69410;SDS011;56604;48.652;9.194;2022-12-07T12:54:21;12.77;;;9.93;;
69410;SDS011;56604;48.652;9.194;2022-12-07T13:10:03;5.10;;;3.70;;
69410;SDS011;56604;48.652;9.194;2022-12-07T13:12:29;6.17;;;3.80;;
69410;SDS011;56604;48.652;9.194;2022-12-07T13:14:57;4.80;;;4.17;;
69410;SDS011;56604;48.652;9.194;2022-12-07T13:19:59;10.00;;;3.97;;
69410;SDS011;56604;48.652;9.194;2022-12-07T13:25:18;5.50;;;5.00;;
69410;SDS011;56604;48.652;9.194;2022-12-07T13:28:07;5.70;;;5.23;;
69410;SDS011;56604;48.652;9.194;2022-12-07T13:31:12;5.70;;;5.13;;
69410;SDS011;56604;48.652;9.194;2022-12-07T13:33:55;5.27;;;4.77;;
69410;SDS011;56604;48.652;9.194;2022-12-07T13:36:27;7.80;;;5.70;;
69410;SDS011;56604;48.652;9.194;2022-12-07T13:39:01;10.83;;;6.90;;
69410;SDS011;56604;48.652;9.194;2022-12-07T13:41:42;17.80;;;9.30;;
69410;SDS011;56604;48.652;9.194;2022-12-07T13:46:43;11.30;;;8.17;;
69410;SDS011;56604;48.652;9.194;2022-12-07T13:49:29;8.60;;;6.40;;
69410;SDS011;56604;48.652;9.194;2022-12-07T13:52:08;22.37;;;13.60;;
69410;SDS011;56604;48.652;9.194;2022-12-07T13:54:43;8.40;;;5.93;;
69410;SDS011;56604;48.652;9.194;2022-12-07T13:57:09;5.10;;;4.50;;
69410;SDS011;56604;48.652;9.194;2022-12-07T13:59:35;4.30;;;3.90;;
69410;SDS011;56604;48.652;9.194;2022-12-07T14:02:02;5.07;;;4.67;;
69410;SDS011;56604;48.652;9.194;2022-12-07T14:04:42;26.30;;;16.30;;
69410;SDS011;56604;48.652;9.194;2022-12-07T14:07:23;31.77;;;16.60;;
69410;SDS011;56604;48.652;9.194;2022-12-07T14:09:54;14.23;;;7.37;;
69410;SDS011;56604;48.652;9.194;2022-12-07T14:12:21;6.40;;;5.33;;
69410;SDS011;56604;48.652;9.194;2022-12-07T14:14:47;11.90;;;7.20;;
69410;SDS011;56604;48.652;9.194;2022-12-07T14:17:17;12.13;;;6.30;;
69410;SDS011;56604;48.652;9.194;2022-12-07T14:19:51;5.00;;;3.90;;
69410;SDS011;56604;48.652;9.194;2022-12-07T14:22:21;4.03;;;3.73;;
69410;SDS011;56604;48.652;9.194;2022-12-07T14:24:49;3.20;;;2.93;;
69410;SDS011;56604;48.652;9.194;2022-12-07T14:27:19;3.10;;;2.90;;
69410;SDS011;56604;48.652;9.194;2022-12-07T14:29:47;2.90;;;2.70;;
69410;SDS011;56604;48.652;9.194;2022-12-07T14:35:15;3.40;;;2.87;;
69410;SDS011;56604;48.652;9.194;2022-12-07T14:37:39;3.93;;;3.63;;
69410;SDS011;56604;48.652;9.194;2022-12-07T14:40:06;3.80;;;3.60;;
69410;SDS011;56604;48.652;9.194;2022-12-07T14:42:32;4.50;;;4.20;;
69410;SDS011;56604;48.652;9.194;2022-12-07T14:44:59;3.80;;;3.50;;
69410;SDS011;56604;48.652;9.194;2022-12-07T14:47:25;4.10;;;3.20;;
69410;SDS011;56604;48.652;9.194;2022-12-07T14:49:51;2.77;;;2.67;;
69410;SDS011;56604;48.652;9.194;2022-12-07T14:52:21;2.97;;;2.77;;
69410;SDS011;56604;48.652;9.194;2022-12-07T14:54:49;5.87;;;2.93;;
69410;SDS011;56604;48.652;9.194;2022-12-07T14:57:14;4.10;;;3.80;;
69410;SDS011;56604;48.652;9.194;2022-12-07T14:59:40;7.77;;;5.90;;
69410;SDS011;56604;48.652;9.194;2022-12-07T15:02:06;12.67;;;6.30;;
69410;SDS011;56604;48.652;9.194;2022-12-07T15:04:32;16.47;;;10.33;;
69410;SDS011;56604;48.652;9.194;2022-12-07T15:06:59;9.03;;;6.50;;
69410;SDS011;56604;48.652;9.194;2022-12-07T15:09:26;6.30;;;5.23;;
69410;SDS011;56604;48.652;9.194;2022-12-07T15:11:51;6.37;;;4.80;;
69410;SDS011;56604;48.652;9.194;2022-12-07T15:14:17;4.27;;;3.23;;
69410;SDS011;56604;48.652;9.194;2022-12-07T15:16:42;3.50;;;3.20;;
69410;SDS011;56604;48.652;9.194;2022-12-07T15:19:10;3.70;;;3.40;;
69410;SDS011;56604;48.652;9.194;2022-12-07T15:21:39;3.17;;;3.07;;
69410;SDS011;56604;48.652;9.194;2022-12-07T15:24:05;6.50;;;4.40;;
69410;SDS011;56604;48.652;9.194;2022-12-07T15:26:30;8.87;;;6.10;;
69410;SDS011;56604;48.652;9.194;2022-12-07T15:28:56;11.27;;;9.80;;
69410;SDS011;56604;48.652;9.194;2022-12-07T15:31:21;8.20;;;5.83;;
69410;SDS011;56604;48.652;9.194;2022-12-07T15:33:47;95.30;;;37.30;;
69410;SDS011;56604;48.652;9.194;2022-12-07T15:36:18;72.10;;;28.33;;
69410;SDS011;56604;48.652;9.194;2022-12-07T15:38:46;255.00;;;81.80;;
69410;SDS011;56604;48.652;9.194;2022-12-07T15:41:11;92.97;;;35.90;;
69410;SDS011;56604;48.652;9.194;2022-12-07T15:43:37;103.30;;;40.67;;
69410;SDS011;56604;48.652;9.194;2022-12-07T15:46:21;92.53;;;39.83;;
69410;SDS011;56604;48.652;9.194;2022-12-07T15:48:46;49.17;;;22.97;;
69410;SDS011;56604;48.652;9.194;2022-12-07T15:51:11;59.60;;;26.80;;
69410;SDS011;56604;48.652;9.194;2022-12-07T15:53:37;111.80;;;38.97;;
69410;SDS011;56604;48.652;9.194;2022-12-07T15:56:06;101.80;;;37.60;;
69410;SDS011;56604;48.652;9.194;2022-12-07T15:58:32;86.83;;;34.30;;
69410;SDS011;56604;48.652;9.194;2022-12-07T16:00:58;98.07;;;39.10;;
69410;SDS011;56604;48.652;9.194;2022-12-07T16:03:23;31.73;;;13.57;;
69410;SDS011;56604;48.652;9.194;2022-12-07T16:05:51;131.77;;;52.93;;
69410;SDS011;56604;48.652;9.194;2022-12-07T16:08:18;107.40;;;40.67;;
69410;SDS011;56604;48.652;9.194;2022-12-07T16:10:44;55.90;;;24.90;;
69410;SDS011;56604;48.652;9.194;2022-12-07T16:13:10;42.90;;;17.53;;
69410;SDS011;56604;48.652;9.194;2022-12-07T16:15:42;42.70;;;16.67;;
69410;SDS011;56604;48.652;9.194;2022-12-07T16:18:07;177.43;;;76.53;;
69410;SDS011;56604;48.652;9.194;2022-12-07T16:20:33;110.67;;;45.90;;
69410;SDS011;56604;48.652;9.194;2022-12-07T16:22:59;135.93;;;58.30;;
69410;SDS011;56604;48.652;9.194;2022-12-07T16:25:25;48.67;;;23.73;;
69410;SDS011;56604;48.652;9.194;2022-12-07T16:27:50;304.77;;;139.47;;
69410;SDS011;56604;48.652;9.194;2022-12-07T16:30:16;370.63;;;183.07;;
69410;SDS011;56604;48.652;9.194;2022-12-07T16:32:42;45.20;;;20.70;;
69410;SDS011;56604;48.652;9.194;2022-12-07T16:35:08;211.57;;;105.43;;
69410;SDS011;56604;48.652;9.194;2022-12-07T16:37:33;28.10;;;16.43;;
69410;SDS011;56604;48.652;9.194;2022-12-07T16:39:59;18.90;;;13.27;;
69410;SDS011;56604;48.652;9.194;2022-12-07T16:42:24;19.03;;;13.20;;
69410;SDS011;56604;48.652;9.194;2022-12-07T16:44:50;16.07;;;10.50;;
69410;SDS011;56604;48.652;9.194;2022-12-07T16:47:15;21.27;;;12.87;;